Time;durP1;ratioP1;P1;durP2;ratioP2;P2;SDS_P1;SDS_P2;PMS_P1;PMS_P2;Temp;Humidity;BMP_temperature;BMP_pressure;BME280_temperature;BME280_humidity;BME280_pressure;Samples;Min_cycle;Max_cycle;Signal;HPM_P1;HPM_P2
2022/11/06 00:01:13;;;;;;;7.93;3.30;;;7.50;99.90;;;5.93;100.00;100826.84;5048955;28;20033;-76
2022/11/06 00:03:40;;;;;;;7.78;3.45;;;7.40;99.90;;;6.03;100.00;100841.00;5048652;28;20133;-76
2022/11/06 00:08:53;;;;;;;6.85;3.60;;;7.50;99.90;;;6.04;100.00;100826.44;5048330;28;20040;-76
2022/11/06 00:11:18;;;;;;;7.68;3.40;;;7.50;99.90;;;5.96;100.00;100829.19;5047921;28;20532;-76
2022/11/06 00:13:46;;;;;;;7.80;3.40;;;7.50;99.90;;;5.95;100.00;100827.50;5048411;28;20123;-76
2022/11/06 00:16:13;;;;;;;6.97;3.30;;;7.40;99.90;;;5.88;100.00;100822.81;5048403;28;20033;-75
2022/11/06 00:18:40;;;;;;;6.73;3.60;;;7.40;99.90;;;5.93;100.00;100824.97;5048396;28;20393;-76
2022/11/06 00:21:17;;;;;;;6.30;3.57;;;7.40;99.90;;;5.99;100.00;100823.41;5049867;28;20418;-74
2022/11/06 00:23:44;;;;;;;8.35;3.58;;;7.40;99.90;;;6.04;100.00;100824.59;5046091;28;20112;-74
2022/11/06 00:26:17;;;;;;;8.73;3.60;;;7.50;99.90;;;6.09;100.00;100806.94;5047859;28;20443;-74
2022/11/06 00:28:43;;;;;;;9.48;3.60;;;7.50;99.90;;;6.15;100.00;100803.50;5048038;28;20045;-75
2022/11/06 00:31:15;;;;;;;6.75;3.40;;;7.60;99.90;;;6.26;100.00;100807.63;5030166;28;20039;-76
2022/11/06 00:33:42;;;;;;;7.93;3.20;;;7.70;99.90;;;6.32;100.00;100805.03;5048250;28;20029;-76
2022/11/06 00:36:12;;;;;;;6.32;3.55;;;7.80;99.90;;;6.43;100.00;100806.44;5048137;28;20033;-76
2022/11/06 00:38:38;;;;;;;7.22;3.10;;;7.80;99.90;;;6.52;100.00;100806.34;5051622;28;20044;-75
2022/11/06 00:41:07;;;;;;;4.90;3.00;;;7.90;99.90;;;6.58;100.00;100809.16;5051902;28;20025;-76
2022/11/06 00:43:34;;;;;;;7.80;2.65;;;8.00;99.90;;;6.64;100.00;100810.28;5051543;28;20032;-75
2022/11/06 00:46:10;;;;;;;6.15;2.90;;;8.10;99.90;;;6.69;100.00;100810.56;5051665;28;20091;-76
2022/11/06 00:48:37;;;;;;;5.20;3.10;;;8.10;99.90;;;6.75;100.00;100803.53;5051739;28;20037;-75
2022/11/06 00:51:18;;;;;;;6.23;2.87;;;8.20;99.90;;;6.83;100.00;100806.16;5051505;28;20395;-75
2022/11/06 00:53:45;;;;;;;6.88;2.80;;;8.30;99.90;;;6.80;100.00;100802.97;5051144;28;20060;-74
2022/11/06 00:56:13;;;;;;;9.75;3.03;;;8.30;99.90;;;6.83;100.00;100800.75;5051326;28;20029;-75
2022/11/06 00:58:40;;;;;;;5.53;2.92;;;8.30;99.90;;;6.79;100.00;100794.03;5051486;28;20036;-75
2022/11/06 01:01:08;;;;;;;6.35;3.20;;;8.30;99.90;;;6.79;100.00;100798.59;5051628;28;20393;-75
2022/11/06 01:03:35;;;;;;;8.38;2.97;;;8.30;99.90;;;6.74;100.00;100793.72;5050817;28;20017;-75
2022/11/06 01:06:27;;;;;;;4.88;2.83;;;8.30;99.90;;;6.72;100.00;100791.22;5050808;28;20148;-75
2022/11/06 01:08:54;;;;;;;5.22;2.85;;;8.20;99.90;;;6.72;100.00;100803.91;5051336;28;20059;-76
2022/11/06 01:11:24;;;;;;;8.43;3.38;;;8.20;99.90;;;6.70;100.00;100808.69;5050914;28;20029;-75
2022/11/06 01:13:54;;;;;;;8.55;3.15;;;8.20;99.90;;;6.73;100.00;100811.88;5051435;28;20040;-77
2022/11/06 01:16:21;;;;;;;6.60;3.30;;;8.20;99.90;;;6.72;100.00;100807.47;5051039;28;20481;-77
2022/11/06 01:18:48;;;;;;;5.75;3.22;;;8.20;99.90;;;6.77;100.00;100809.63;5032807;28;20048;-75
2022/11/06 01:21:22;;;;;;;6.97;3.87;;;8.20;99.90;;;6.83;100.00;100808.03;5050812;28;20036;-76
2022/11/06 01:23:57;;;;;;;8.40;3.30;;;8.20;99.90;;;6.85;100.00;100812.25;5050702;28;20040;-76
2022/11/06 01:26:24;;;;;;;7.05;3.00;;;8.30;99.90;;;6.86;100.00;100802.22;5050857;28;20037;-76
2022/11/06 01:28:50;;;;;;;6.03;3.13;;;8.30;99.90;;;6.84;100.00;100804.28;5050762;28;20124;-75
2022/11/06 01:31:27;;;;;;;6.25;3.25;;;8.30;99.90;;;6.87;100.00;100802.03;5050477;28;20143;-76
2022/11/06 01:33:55;;;;;;;7.20;3.53;;;8.30;99.90;;;6.85;100.00;100787.84;5050804;28;20033;-76
2022/11/06 01:36:22;;;;;;;;;;;8.30;99.90;;;6.81;100.00;100791.09;5050917;28;20037;-76
2022/11/06 01:38:51;;;;;;;5.78;3.35;;;8.30;99.90;;;6.83;100.00;100797.19;5050087;28;19913;-77
2022/11/06 01:41:34;;;;;;;7.28;3.80;;;8.30;99.90;;;6.82;100.00;100793.63;5050169;28;20081;-75
2022/11/06 01:44:23;;;;;;;8.60;4.40;;;8.30;99.90;;;6.79;100.00;100788.59;5050185;28;20025;-76
2022/11/06 01:46:48;;;;;;;6.32;3.92;;;8.30;99.90;;;6.81;100.00;100785.69;5049908;28;20040;-76
2022/11/06 01:49:16;;;;;;;6.78;4.25;;;8.30;99.90;;;6.78;100.00;100773.34;5049882;28;20044;-76
2022/11/06 01:52:09;;;;;;;7.00;4.35;;;8.30;99.90;;;6.74;100.00;100781.00;5050056;28;20039;-76
2022/11/06 01:54:38;;;;;;;10.10;3.97;;;8.20;99.90;;;6.74;100.00;100786.44;5049934;28;20498;-77
2022/11/06 01:57:05;;;;;;;10.60;4.03;;;8.20;99.90;;;6.66;100.00;100791.09;5050111;28;20036;-76
2022/11/06 01:59:36;;;;;;;9.67;3.80;;;8.20;99.90;;;6.61;100.00;100783.53;5049911;28;20112;-76
2022/11/06 02:02:03;;;;;;;6.93;3.90;;;8.10;99.90;;;6.54;100.00;100782.59;5050114;28;20273;-76
2022/11/06 02:04:39;;;;;;;8.85;4.00;;;8.00;99.90;;;6.58;100.00;100790.19;5049822;28;20102;-76
2022/11/06 02:07:06;;;;;;;7.15;4.35;;;8.10;99.90;;;6.58;100.00;100779.34;5050131;28;20112;-76
2022/11/06 02:09:34;;;;;;;9.85;4.03;;;8.10;99.90;;;6.59;100.00;100777.44;5049722;28;20036;-75
2022/11/06 02:12:37;;;;;;;11.98;4.68;;;8.10;99.90;;;6.67;100.00;100790.94;5049649;28;20065;-75
2022/11/06 02:15:25;;;;;;;9.60;4.05;;;8.10;99.90;;;6.67;100.00;100785.50;5049658;28;20040;-76
2022/11/06 02:18:35;;;;;;;7.20;4.30;;;8.10;99.90;;;6.71;100.00;100784.09;5049865;28;20067;-76
2022/11/06 02:21:44;;;;;;;7.97;4.10;;;8.20;99.90;;;6.66;100.00;100780.25;5049335;28;20488;-77
2022/11/06 02:24:37;;;;;;;7.43;4.07;;;8.10;99.90;;;6.68;100.00;100787.19;5049631;28;20044;-76
2022/11/06 02:27:09;;;;;;;8.15;4.10;;;8.10;99.90;;;6.68;100.00;100792.63;5049617;28;20567;-77
2022/11/06 02:29:53;;;;;;;7.60;3.85;;;8.10;99.90;;;6.54;100.00;100772.63;5049520;28;20047;-76
2022/11/06 02:32:38;;;;;;;8.77;3.97;;;8.10;99.90;;;6.61;100.00;100783.53;5049520;28;20128;-76
2022/11/06 02:35:43;;;;;;;6.68;3.78;;;8.10;99.90;;;6.59;100.00;100780.16;5049477;28;20037;-75
2022/11/06 02:38:21;;;;;;;7.90;3.60;;;8.10;99.90;;;6.50;100.00;100770.47;5049491;28;20404;-77
2022/11/06 02:40:58;;;;;;;8.23;4.15;;;8.00;99.90;;;6.42;100.00;100755.97;5049010;28;20091;-76
2022/11/06 02:43:56;;;;;;;7.47;4.20;;;7.90;99.90;;;6.47;100.00;100761.66;5031381;28;20052;-76
2022/11/06 02:46:40;;;;;;;7.40;4.15;;;7.90;99.90;;;6.47;100.00;100755.41;5049354;28;20036;-75
2022/11/06 02:49:13;;;;;;;8.55;3.88;;;7.90;99.90;;;6.42;100.00;100755.97;5049641;28;20116;-76
2022/11/06 02:51:49;;;;;;;7.60;4.03;;;7.90;99.90;;;6.43;100.00;100757.66;5049467;28;20087;-76
2022/11/06 02:54:20;;;;;;;8.38;4.22;;;7.90;99.90;;;6.43;100.00;100757.66;5048955;28;20219;-76
2022/11/06 02:56:51;;;;;;;10.95;4.25;;;7.90;99.90;;;6.40;100.00;100744.47;5048632;28;20029;-75
2022/11/06 02:59:28;;;;;;;8.95;4.55;;;7.90;99.90;;;6.37;100.00;100755.69;5048520;28;20072;-75
2022/11/06 03:02:01;;;;;;;7.53;4.22;;;7.90;99.90;;;6.40;100.00;100747.19;5048861;28;20029;-75
2022/11/06 03:04:48;;;;;;;8.73;4.50;;;7.90;99.90;;;6.31;100.00;100746.44;5048626;28;20033;-76
2022/11/06 03:07:27;;;;;;;6.60;3.72;;;7.80;99.90;;;6.30;100.00;100743.91;5048645;28;20036;-76
2022/11/06 03:09:54;;;;;;;7.43;4.32;;;7.80;99.90;;;6.24;100.00;100739.22;5048871;28;20033;-77
2022/11/06 03:12:29;;;;;;;9.65;4.47;;;7.80;99.90;;;6.19;100.00;100751.47;5048706;28;20513;-76
2022/11/06 03:15:39;;;;;;;9.75;5.55;;;7.70;99.90;;;6.11;100.00;100754.28;5048252;28;20035;-76
2022/11/06 03:18:35;;;;;;;8.40;4.85;;;7.60;99.90;;;6.12;100.00;100747.84;5048404;28;20049;-76
2022/11/06 03:21:24;;;;;;;9.60;4.28;;;7.60;99.90;;;6.13;100.00;100738.69;5048284;28;20064;-75
2022/11/06 03:24:01;;;;;;;8.17;4.23;;;7.60;99.90;;;6.13;100.00;100733.25;5048190;28;20077;-76
2022/11/06 03:26:39;;;;;;;9.18;4.50;;;7.60;99.90;;;6.04;100.00;100745.19;5047842;28;20400;-74
2022/11/06 03:29:25;;;;;;;9.48;4.47;;;7.60;99.90;;;5.95;100.00;100722.72;5048463;28;20492;-76
2022/11/06 03:31:59;;;;;;;7.32;4.20;;;7.50;99.90;;;5.88;100.00;100725.34;5048404;28;20037;-75
2022/11/06 03:34:41;;;;;;;10.40;4.13;;;7.40;99.90;;;5.80;100.00;100719.97;5047987;28;20033;-75
2022/11/06 03:37:18;;;;;;;12.75;4.45;;;7.30;99.90;;;5.78;100.00;100718.50;5048530;28;20064;-75
2022/11/06 03:39:53;;;;;;;9.13;4.35;;;7.30;99.90;;;5.74;100.00;100713.47;5048074;28;20036;-76
2022/11/06 03:42:26;;;;;;;8.70;4.40;;;7.20;99.90;;;5.70;100.00;100719.41;5048046;28;20127;-75
2022/11/06 03:45:07;;;;;;;12.65;6.40;;;7.20;99.90;;;5.66;100.00;100718.94;5048058;28;20037;-75
2022/11/06 03:47:37;;;;;;;9.95;4.72;;;7.20;99.90;;;5.69;100.00;100720.44;5047951;28;20061;-75
2022/11/06 03:50:26;;;;;;;8.27;4.55;;;7.10;99.90;;;5.67;100.00;100717.06;5048315;28;20041;-74
2022/11/06 03:53:05;;;;;;;7.90;4.15;;;7.10;99.90;;;5.64;100.00;100712.03;5048319;28;20083;-75
2022/11/06 03:55:41;;;;;;;8.52;4.30;;;7.10;99.90;;;5.59;100.00;100713.44;5047601;28;20519;-75
2022/11/06 03:58:37;;;;;;;7.43;4.22;;;7.10;99.90;;;5.64;100.00;100718.28;5048419;28;20029;-74
2022/11/06 04:01:08;;;;;;;8.55;4.70;;;7.10;99.90;;;5.59;100.00;100713.44;5046524;28;20130;-75
2022/11/06 04:03:50;;;;;;;10.02;4.88;;;7.10;99.90;;;5.61;100.00;100715.94;5047965;28;20045;-75
2022/11/06 04:06:42;;;;;;;8.30;4.15;;;7.10;99.90;;;5.61;100.00;100716.78;5047524;28;20045;-76
2022/11/06 04:14:53;;;;;;;8.88;4.38;;;7.10;99.90;;;5.60;100.00;100706.13;5051633;28;20036;-76
2022/11/06 04:17:22;;;;;;;10.95;4.57;;;7.10;99.90;;;5.58;100.00;100700.91;5051772;28;20511;-75
2022/11/06 04:20:03;;;;;;;7.40;4.47;;;7.10;99.90;;;5.60;100.00;100701.56;5051716;28;20124;-76
2022/11/06 04:22:58;;;;;;;10.80;4.22;;;7.10;99.90;;;5.61;100.00;100711.38;5051908;28;20033;-76
2022/11/06 04:28:40;;;;;;;10.65;4.70;;;7.20;99.90;;;5.62;100.00;100709.50;5051257;28;20108;-77
2022/11/06 04:31:37;;;;;;;8.33;4.37;;;7.20;99.90;;;5.73;100.00;100705.50;5051805;28;20044;-76
2022/11/06 04:34:25;;;;;;;9.23;4.68;;;7.20;99.90;;;5.82;100.00;100707.09;5051594;28;20430;-76
2022/11/06 04:37:30;;;;;;;9.18;4.25;;;7.30;99.90;;;5.85;100.00;100719.44;5051394;28;20083;-76
2022/11/06 04:40:08;;;;;;;8.43;4.68;;;7.30;99.90;;;5.88;100.00;100698.25;5051283;28;20033;-76
2022/11/06 04:43:02;;;;;;;10.23;4.10;;;7.40;99.90;;;5.96;100.00;100704.63;5051293;28;20033;-76
2022/11/06 04:45:38;;;;;;;8.40;3.97;;;7.50;99.90;;;5.98;100.00;100703.41;5039531;28;20513;-77
2022/11/06 04:48:06;;;;;;;9.80;4.20;;;7.50;99.90;;;5.96;100.00;100704.63;5051396;28;20444;-76
2022/11/06 04:50:47;;;;;;;11.45;5.05;;;7.50;99.90;;;5.96;100.00;100713.56;5051140;28;20083;-77
2022/11/06 04:53:16;;;;;;;10.10;4.10;;;7.50;99.90;;;6.00;100.00;100720.31;5051066;28;20040;-75
2022/11/06 04:55:48;;;;;;;6.90;3.67;;;7.50;99.90;;;6.05;100.00;100711.66;5050895;28;20497;-75
2022/11/06 04:58:14;;;;;;;9.50;4.28;;;7.50;99.90;;;6.04;100.00;100716.25;5050946;28;20029;-77
2022/11/06 05:00:46;;;;;;;7.72;4.10;;;7.60;99.90;;;6.09;100.00;100710.25;5050855;28;20536;-74
2022/11/06 05:03:13;;;;;;;9.15;4.45;;;7.60;99.90;;;6.15;100.00;100714.09;5050741;28;20558;-74
2022/11/06 05:05:40;;;;;;;8.98;4.15;;;7.60;99.90;;;6.21;100.00;100717.94;5050694;28;20144;-74
2022/11/06 05:08:11;;;;;;;10.23;4.50;;;7.70;99.90;;;6.22;100.00;100703.38;5051104;28;20029;-76
2022/11/06 05:10:37;;;;;;;9.05;4.60;;;7.70;99.90;;;6.25;100.00;100687.59;5051070;28;20029;-76
2022/11/06 05:13:03;;;;;;;9.10;4.10;;;7.70;99.90;;;6.22;100.00;100689.81;5050707;28;20095;-76
2022/11/06 05:15:28;;;;;;;7.05;3.80;;;7.80;99.90;;;6.28;100.00;100698.03;5050502;28;20188;-75
2022/11/06 05:17:57;;;;;;;8.50;4.05;;;7.80;99.90;;;6.33;100.00;100717.28;5050933;28;20028;-74
2022/11/06 05:20:23;;;;;;;8.30;4.00;;;7.80;99.90;;;6.37;100.00;100701.50;5051194;28;20039;-76
2022/11/06 05:23:01;;;;;;;9.88;4.47;;;7.80;99.90;;;6.42;100.00;100699.06;5049970;28;20572;-76
2022/11/06 05:25:33;;;;;;;8.73;3.83;;;7.90;99.90;;;6.42;100.00;100703.63;5050715;28;20037;-75
2022/11/06 05:28:01;;;;;;;9.15;4.32;;;7.90;99.90;;;6.40;100.00;100703.84;5048604;28;20079;-76
2022/11/06 05:30:27;;;;;;;10.85;4.05;;;7.90;99.90;;;6.42;100.00;100701.78;5050356;28;20114;-76
2022/11/06 05:32:53;;;;;;;8.00;4.30;;;7.90;99.90;;;6.44;100.00;100696.16;5050601;28;20033;-76
2022/11/06 05:35:20;;;;;;;11.65;4.47;;;7.90;99.90;;;6.41;100.00;100691.97;5050229;28;20577;-77
2022/11/06 05:37:46;;;;;;;8.93;4.38;;;7.90;99.90;;;6.45;100.00;100695.97;5050152;28;20025;-76
2022/11/06 05:40:12;;;;;;;7.65;4.53;;;7.90;99.90;;;6.40;100.00;100695.69;5050360;28;20037;-76
2022/11/06 05:42:40;;;;;;;9.00;4.30;;;7.90;99.90;;;6.38;100.00;100703.19;5050298;28;20122;-75
2022/11/06 05:45:08;;;;;;;10.18;4.70;;;7.90;99.90;;;6.40;100.00;100700.25;5050596;28;20037;-76
2022/11/06 05:47:34;;;;;;;9.68;4.47;;;7.90;99.90;;;6.42;100.00;100696.34;5048525;28;20520;-76
2022/11/06 05:50:00;;;;;;;7.80;4.00;;;7.90;99.90;;;6.44;100.00;100685.31;5050064;28;20169;-75
2022/11/06 05:52:26;;;;;;;8.23;4.72;;;8.00;99.90;;;6.45;100.00;100681.56;5032154;28;20037;-75
2022/11/06 05:54:53;;;;;;;10.50;3.95;;;8.00;99.90;;;6.51;100.00;100677.28;5050177;28;20412;-75
2022/11/06 05:57:18;;;;;;;8.90;4.40;;;8.00;99.90;;;6.51;100.00;100675.41;5050104;28;20028;-77
2022/11/06 05:59:44;;;;;;;11.18;4.07;;;8.00;99.90;;;6.42;100.00;100666.53;5049744;28;20529;-76
2022/11/06 06:02:10;;;;;;;7.53;3.75;;;8.00;99.90;;;6.42;100.00;100665.69;5049762;28;20040;-77
2022/11/06 06:04:35;;;;;;;8.55;3.83;;;8.00;99.90;;;6.38;100.00;100669.81;5049629;28;20086;-76
2022/11/06 06:07:01;;;;;;;10.70;4.65;;;7.90;99.90;;;6.27;100.00;100657.56;5049475;28;20045;-76
2022/11/06 06:09:27;;;;;;;8.10;4.18;;;7.80;99.90;;;6.31;100.00;100664.28;5049268;28;20040;-76
2022/11/06 06:11:53;;;;;;;13.75;4.90;;;7.80;99.90;;;6.30;100.00;100668.03;5049699;28;20051;-76
2022/11/06 06:14:20;;;;;;;10.48;4.30;;;7.80;99.90;;;6.23;100.00;100665.22;5049684;28;20028;-76
2022/11/06 06:16:46;;;;;;;7.05;3.88;;;7.80;99.90;;;6.24;100.00;100669.66;5049220;28;20048;-76
2022/11/06 06:19:13;;;;;;;8.30;4.70;;;7.70;99.90;;;6.16;100.00;100673.28;5049315;28;20369;-75
2022/11/06 06:21:39;;;;;;;9.18;4.75;;;7.70;99.90;;;6.12;100.00;100671.13;5049394;28;20225;-76
2022/11/06 06:24:05;;;;;;;9.38;4.43;;;7.60;99.90;;;6.20;100.00;100679.16;5049342;28;20481;-75
2022/11/06 06:26:31;;;;;;;10.88;4.05;;;7.70;99.90;;;6.16;100.00;100678.72;5049264;28;20033;-76
2022/11/06 06:28:57;;;;;;;12.38;4.43;;;7.70;99.90;;;6.08;100.00;100676.06;5048934;28;20128;-76
2022/11/06 06:31:23;;;;;;;7.13;3.95;;;7.60;99.90;;;6.01;100.00;100664.31;5049174;28;20090;-76
2022/11/06 06:33:49;;;;;;;9.98;4.53;;;7.50;99.90;;;6.10;100.00;100686.72;5048869;28;20052;-76
2022/11/06 06:36:15;;;;;;;9.63;4.10;;;7.60;99.90;;;6.06;100.00;100670.00;5047804;28;20721;-77
2022/11/06 06:38:41;;;;;;;7.22;3.75;;;7.60;99.90;;;6.12;100.00;100671.97;5048726;28;20128;-76
2022/11/06 06:41:07;;;;;;;10.05;4.03;;;7.60;99.90;;;6.13;100.00;100673.66;5049335;28;20342;-77
2022/11/06 06:43:34;;;;;;;8.77;3.92;;;7.60;99.90;;;6.24;100.00;100672.34;5048601;28;20096;-76
2022/11/06 06:46:02;;;;;;;11.05;4.22;;;7.70;99.90;;;6.27;100.00;100663.00;5048652;28;20040;-78
2022/11/06 06:48:28;;;;;;;9.13;4.30;;;7.70;99.90;;;6.26;100.00;100656.75;5048488;28;20033;-78
2022/11/06 06:51:02;;;;;;;10.05;4.10;;;7.80;99.90;;;6.26;100.00;100666.72;5051846;28;20090;-76
2022/11/06 06:53:28;;;;;;;8.70;4.05;;;7.80;99.90;;;6.25;100.00;100660.50;5051106;28;20032;-77
2022/11/06 06:55:54;;;;;;;11.82;4.47;;;7.70;99.90;;;6.25;100.00;100651.50;5068579;28;20037;-77
2022/11/06 06:58:20;;;;;;;11.77;4.20;;;7.70;99.90;;;6.17;100.00;100650.59;5053387;28;20472;-77
2022/11/06 07:00:46;;;;;;;13.13;4.32;;;7.70;99.90;;;6.13;100.00;100652.00;5048790;28;20417;-78
2022/11/06 07:03:12;;;;;;;8.75;4.05;;;7.70;99.90;;;6.17;100.00;100645.16;5048719;28;20029;-78
2022/11/06 07:05:39;;;;;;;8.38;4.30;;;7.70;99.90;;;6.26;100.00;100661.31;5050688;28;20048;-80
2022/11/06 07:08:07;;;;;;;9.20;4.07;;;7.70;99.90;;;6.25;100.00;100668.63;5062643;28;20476;-85
2022/11/06 07:10:33;;;;;;;10.30;4.05;;;7.70;99.90;;;6.23;100.00;100661.69;5060028;28;20040;-83
2022/11/06 07:13:04;;;;;;;9.75;4.10;;;7.70;99.90;;;6.17;100.00;100647.03;5059824;28;20024;-82
2022/11/06 07:15:31;;;;;;;11.20;4.20;;;7.70;99.90;;;6.25;100.00;100663.19;5060299;28;20043;-78
2022/11/06 07:18:05;;;;;;;9.87;4.80;;;7.70;99.90;;;6.34;100.00;100661.19;5066988;28;20078;-80
2022/11/06 07:20:32;;;;;;;7.10;4.38;;;7.80;99.90;;;6.47;100.00;100647.84;5060847;28;20749;-77
2022/11/06 07:22:58;;;;;;;9.20;4.50;;;7.90;99.90;;;6.52;100.00;100651.84;5064009;28;20659;-80
2022/11/06 07:25:25;;;;;;;10.05;4.70;;;8.00;99.90;;;6.61;100.00;100651.53;5069555;28;20101;-78
2022/11/06 07:27:50;;;;;;;8.95;4.32;;;8.10;99.90;;;6.69;100.00;100656.03;5082858;28;20032;-85
2022/11/06 07:30:16;;;;;;;9.48;4.45;;;8.20;99.90;;;6.65;100.00;100643.03;5073560;28;20447;-82
2022/11/06 07:32:42;;;;;;;9.13;5.05;;;8.20;99.90;;;6.81;100.00;100647.38;5046979;28;20033;-79
2022/11/06 07:35:08;;;;;;;12.45;5.30;;;8.30;99.90;;;6.88;100.00;100659.97;5047431;28;20036;-84
2022/11/06 07:37:35;;;;;;;9.73;4.22;;;8.40;99.90;;;6.90;100.00;100663.34;5058455;28;20485;-83
2022/11/06 07:40:01;;;;;;;11.13;4.93;;;8.40;99.90;;;6.94;100.00;100666.53;5062769;28;20040;-82
2022/11/06 07:42:27;;;;;;;10.30;4.80;;;8.40;99.90;;;6.99;100.00;100663.19;5049906;28;20112;-82
2022/11/06 07:44:57;;;;;;;8.38;5.07;;;8.50;99.90;;;6.98;100.00;100662.38;5046311;28;20052;-82
2022/11/06 07:47:23;;;;;;;12.10;5.05;;;8.50;99.90;;;6.99;100.00;100655.91;5058606;28;20036;-81
2022/11/06 07:49:49;;;;;;;7.78;4.63;;;8.50;99.90;;;7.01;100.00;100667.41;5050484;28;20059;-83
2022/11/06 07:52:15;;;;;;;10.73;4.38;;;8.50;99.90;;;6.96;100.00;100661.75;5067813;28;20032;-87
2022/11/06 07:54:40;;;;;;;7.72;4.40;;;8.50;99.90;;;6.98;100.00;100656.97;5069396;28;20082;-82
2022/11/06 07:57:06;;;;;;;9.63;4.78;;;8.50;99.90;;;6.86;100.00;100655.75;5069673;28;20468;-86
2022/11/06 07:59:33;;;;;;;11.55;4.93;;;8.40;99.90;;;6.80;100.00;100660.09;5070062;28;20021;-86
2022/11/06 08:01:59;;;;;;;8.38;4.50;;;8.30;99.90;;;6.79;100.00;100650.28;5069313;28;20033;-81
2022/11/06 08:04:24;;;;;;;9.13;5.13;;;8.30;99.90;;;6.87;100.00;100643.88;5069895;28;20036;-80
2022/11/06 08:06:51;;;;;;;9.40;4.88;;;8.40;99.90;;;6.95;100.00;100649.22;5068684;28;20064;-81
2022/11/06 08:09:17;;;;;;;9.32;5.00;;;8.40;99.90;;;6.93;100.00;100658.56;5068596;28;20091;-79
2022/11/06 08:11:43;;;;;;;13.23;5.65;;;8.40;99.90;;;6.85;100.00;100659.50;5068163;28;20033;-79
2022/11/06 08:14:10;;;;;;;7.53;4.80;;;8.40;99.90;;;6.92;100.00;100660.44;5068673;28;20024;-80
2022/11/06 08:16:35;;;;;;;10.98;4.97;;;8.40;99.90;;;7.03;100.00;100659.94;5068854;28;20148;-78
2022/11/06 08:19:01;;;;;;;7.03;4.97;;;8.50;99.90;;;7.14;100.00;100657.72;5067715;28;20032;-76
2022/11/06 08:21:27;;;;;;;9.95;4.90;;;8.60;99.90;;;7.24;100.00;100649.25;5065208;28;20033;-78
2022/11/06 08:23:53;;;;;;;8.52;4.40;;;8.70;99.90;;;7.27;100.00;100647.00;5062768;28;20048;-77
2022/11/06 08:26:18;;;;;;;8.73;4.53;;;8.80;99.90;;;7.33;100.00;100651.66;5063837;28;20029;-81
2022/11/06 08:28:44;;;;;;;12.30;5.15;;;8.80;99.90;;;7.38;100.00;100652.94;5057027;28;20028;-77
2022/11/06 08:31:10;;;;;;;12.27;4.57;;;8.90;99.90;;;7.37;100.00;100643.97;5057508;28;20439;-79
2022/11/06 08:33:37;;;;;;;9.88;4.85;;;9.00;99.90;;;7.52;100.00;100652.00;5058525;28;20476;-77
2022/11/06 08:36:06;;;;;;;8.73;4.80;;;9.00;99.90;;;7.59;100.00;100639.31;5057053;28;20032;-76
2022/11/06 08:38:32;;;;;;;;;;;9.10;99.90;;;7.63;99.80;100640.59;5066216;28;20067;-77
2022/11/06 08:40:57;;;;;;;8.68;4.80;;;9.10;99.90;;;7.76;99.76;100650.72;5066588;28;19916;-77
2022/11/06 08:43:25;;;;;;;9.45;4.63;;;9.20;99.90;;;7.84;97.83;100649.75;5067175;28;20043;-77
2022/11/06 08:45:51;;;;;;;7.75;4.60;;;9.30;99.90;;;7.98;96.62;100652.56;5055727;28;20029;-76
2022/11/06 08:48:17;;;;;;;10.68;4.30;;;9.40;99.90;;;8.13;96.46;100652.44;5057397;28;20037;-76
2022/11/06 08:50:43;;;;;;;7.43;4.20;;;9.50;99.90;;;8.16;94.70;100655.56;5055762;28;20292;-77
2022/11/06 08:53:09;;;;;;;9.30;3.95;;;9.60;99.90;;;8.32;97.23;100650.84;5057386;28;20036;-76
2022/11/06 08:55:38;;;;;;;7.75;3.83;;;9.70;99.90;;;8.50;94.15;100653.06;5055403;28;20032;-76
2022/11/06 08:58:06;;;;;;;9.52;4.40;;;9.90;99.90;;;8.60;92.80;100667.09;5056005;28;20074;-76
2022/11/06 09:00:33;;;;;;;8.07;4.13;;;10.00;99.90;;;8.53;92.05;100657.25;5060827;28;20090;-77
2022/11/06 09:03:02;;;;;;;6.82;4.30;;;10.00;99.90;;;8.32;92.28;100643.53;5059100;28;20505;-76
2022/11/06 09:05:29;;;;;;;10.25;4.45;;;9.80;99.90;;;8.34;92.41;100654.22;5058642;28;20036;-76
2022/11/06 09:07:57;;;;;;;8.48;4.32;;;9.80;99.90;;;8.38;91.69;100646.50;5057982;28;20084;-77
2022/11/06 09:10:24;;;;;;;8.82;4.22;;;9.80;99.90;;;8.41;91.56;100638.75;5061151;28;20032;-77
2022/11/06 09:12:50;;;;;;;6.67;3.93;;;9.90;99.90;;;8.43;92.70;100636.66;5050323;28;20025;-76
2022/11/06 09:15:16;;;;;;;10.38;4.47;;;9.90;99.90;;;8.60;91.80;100633.63;5056703;28;20531;-76
2022/11/06 09:17:47;;;;;;;9.05;4.25;;;10.00;99.90;;;8.86;89.39;100632.03;5061307;28;20052;-77
2022/11/06 09:20:16;;;;;;;7.15;3.78;;;10.30;99.90;;;8.94;90.38;100633.72;5063562;28;20032;-77
2022/11/06 09:22:42;;;;;;;8.07;3.85;;;10.40;99.90;;;8.90;86.42;100628.72;5066790;28;20028;-77
2022/11/06 09:25:08;;;;;;;10.82;4.13;;;10.40;99.90;;;8.87;88.21;100642.69;5060123;28;20052;-78
2022/11/06 09:27:42;;;;;;;7.78;3.60;;;10.40;99.90;;;9.11;88.24;100639.63;5062460;28;20104;-77
2022/11/06 09:30:10;;;;;;;7.22;3.65;;;10.50;99.90;;;9.32;86.14;100650.31;5061432;28;20393;-76
2022/11/06 09:32:37;;;;;;;7.90;3.95;;;10.70;99.90;;;9.40;85.59;100642.97;5060945;28;20049;-76
2022/11/06 09:35:03;;;;;;;6.70;3.80;;;10.90;99.90;;;9.46;86.84;100644.88;5058844;28;20037;-76
2022/11/06 09:37:29;;;;;;;8.50;3.83;;;10.90;99.90;;;9.34;84.43;100626.44;5053567;28;20035;-76
2022/11/06 09:39:55;;;;;;;9.30;3.88;;;11.00;99.90;;;9.62;84.02;100633.56;5061175;28;20028;-78
2022/11/06 09:42:58;;;;;;;9.32;4.03;;;11.20;99.90;;;9.73;83.21;100632.09;5059384;28;20024;-76
2022/11/06 09:45:29;;;;;;;12.43;3.97;;;11.30;99.90;;;9.70;83.38;100618.88;5042225;28;20400;-77
2022/11/06 09:48:26;;;;;;;7.43;3.60;;;11.30;99.90;;;11.03;75.82;100606.81;5062705;28;20085;-76
2022/11/06 09:51:00;;;;;;;8.85;4.03;;;11.70;99.90;;;13.03;65.86;100615.78;5065365;28;20029;-77
2022/11/06 09:53:45;;;;;;;8.50;3.88;;;13.30;99.90;;;13.19;61.23;100608.81;5029576;28;20032;-77
2022/11/06 09:56:16;;;;;;;7.88;3.33;;;14.60;99.90;;;13.15;61.95;100617.72;5057492;28;20452;-83
2022/11/06 09:58:44;;;;;;;10.18;3.97;;;14.70;99.90;;;14.26;58.02;100602.47;5063704;28;20044;-79
2022/11/06 10:01:23;;;;;;;6.93;3.35;;;15.20;99.90;;;13.81;57.60;100599.31;5050332;28;20120;-79
2022/11/06 10:04:02;;;;;;;8.57;3.28;;;15.50;99.50;;;13.57;59.95;100604.00;5052346;28;20036;-77
2022/11/06 10:06:29;;;;;;;6.22;3.00;;;15.00;99.90;;;13.85;57.18;100605.19;5062687;28;20484;-77
2022/11/06 10:09:01;;;;;;;5.88;2.78;;;14.80;99.70;;;14.74;54.43;100610.59;5030953;28;20037;-78
2022/11/06 10:11:56;;;;;;;5.32;2.70;;;15.40;99.30;;;14.34;55.66;100617.75;5048685;28;20497;-76
2022/11/06 10:15:01;;;;;;;7.05;2.80;;;15.70;98.30;;;14.46;54.51;100613.03;5049636;28;20079;-76
2022/11/06 10:17:45;;;;;;;5.15;2.95;;;15.90;97.50;;;12.13;63.48;100607.28;5063192;28;20029;-78
2022/11/06 10:20:24;;;;;;;7.00;2.70;;;14.70;99.50;;;13.23;62.31;100612.75;5053136;28;20052;-73
2022/11/06 10:23:10;;;;;;;5.95;2.63;;;14.10;99.90;;;14.42;56.11;100598.13;5048764;28;20036;-77
2022/11/06 10:26:01;;;;;;;6.78;2.47;;;15.40;99.30;;;14.64;55.28;100597.47;5049001;28;20037;-77
2022/11/06 10:29:11;;;;;;;6.28;2.53;;;16.10;97.40;;;14.97;53.42;100601.38;5059977;28;20184;-76
2022/11/06 10:32:18;;;;;;;7.10;2.60;;;16.50;95.90;;;14.92;53.34;100590.31;5060765;28;20041;-77
2022/11/06 10:35:02;;;;;;;5.05;2.40;;;16.70;94.90;;;14.80;54.01;100595.88;5057177;28;20301;-78
2022/11/06 10:37:38;;;;;;;5.57;2.80;;;16.30;95.80;;;14.97;53.32;100584.91;5059082;28;20369;-76
2022/11/06 10:40:10;;;;;;;5.05;2.75;;;16.30;95.80;;;14.68;53.54;100585.72;5051634;28;20029;-78
2022/11/06 10:42:40;;;;;;;6.35;2.42;;;16.30;95.40;;;15.27;52.28;100577.44;5055111;28;20032;-77
2022/11/06 10:45:14;;;;;;;3.95;2.20;;;16.50;95.20;;;16.94;47.82;100591.13;5056658;28;20125;-78
2022/11/06 10:48:02;;;;;;;5.22;2.25;;;17.50;93.60;;;17.51;46.55;100574.28;5055546;28;20037;-75
2022/11/06 10:50:50;;;;;;;5.53;2.25;;;18.30;92.20;;;16.64;47.37;100569.63;5061823;28;20033;-75
2022/11/06 10:53:43;;;;;;;6.32;2.63;;;18.70;90.30;;;15.31;52.60;100562.94;5058944;28;20028;-75